createdAt,value
2023-04-16T00:00:28.666Z,5.75
2023-04-16T00:02:56.009Z,4.90
2023-04-16T00:05:23.449Z,5.18
2023-04-16T00:07:51.916Z,6.40
2023-04-16T00:10:19.160Z,7.20
2023-04-16T00:12:46.321Z,5.90
2023-04-16T00:15:13.473Z,5.57
2023-04-16T00:17:40.628Z,7.35
2023-04-16T00:20:09.274Z,7.88
2023-04-16T00:22:36.404Z,8.13
2023-04-16T00:25:03.634Z,9.30
2023-04-16T00:27:30.769Z,8.48
2023-04-16T00:29:58.249Z,11.13
2023-04-16T00:32:25.781Z,7.03
2023-04-16T00:34:52.943Z,7.60
2023-04-16T00:37:20.011Z,6.97
2023-04-16T00:39:47.147Z,7.25
2023-04-16T00:42:14.325Z,7.10
2023-04-16T00:44:41.479Z,7.78
2023-04-16T00:47:09.173Z,10.35
2023-04-16T00:49:36.963Z,8.30
2023-04-16T00:52:04.683Z,8.68
2023-04-16T00:54:32.346Z,8.13
2023-04-16T00:57:00.187Z,7.95
2023-04-16T00:59:28.083Z,8.20
2023-04-16T01:01:55.388Z,8.98
2023-04-16T01:04:22.918Z,6.88
2023-04-16T01:06:51.389Z,8.05
2023-04-16T01:09:18.697Z,6.93
2023-04-16T01:11:46.088Z,5.80
2023-04-16T01:14:13.309Z,6.15
2023-04-16T01:16:40.349Z,7.38
2023-04-16T01:19:07.851Z,5.82
2023-04-16T01:21:35.141Z,7.22
2023-04-16T01:24:05.700Z,6.57
2023-04-16T01:26:33.718Z,6.70
2023-04-16T01:29:00.943Z,6.55
2023-04-16T01:31:28.086Z,6.45
2023-04-16T01:34:07.987Z,6.10
2023-04-16T01:36:35.557Z,6.13
2023-04-16T01:39:02.737Z,6.57
2023-04-16T01:41:29.846Z,6.45
2023-04-16T01:43:56.934Z,6.00
2023-04-16T01:46:29.092Z,4.78
2023-04-16T01:48:57.149Z,4.80
2023-04-16T01:51:24.408Z,5.30
2023-04-16T01:53:51.682Z,8.98
2023-04-16T01:56:18.942Z,11.43
2023-04-16T01:58:48.614Z,12.32
2023-04-16T02:01:17.627Z,14.38
2023-04-16T02:03:46.091Z,13.88
2023-04-16T02:06:13.585Z,13.10
2023-04-16T02:08:41.824Z,13.60
2023-04-16T02:11:09.093Z,11.98
2023-04-16T02:13:36.746Z,13.18
2023-04-16T02:16:04.143Z,12.07
2023-04-16T02:18:44.031Z,11.55
2023-04-16T02:21:13.369Z,12.63
2023-04-16T02:23:41.701Z,11.93
2023-04-16T02:26:08.913Z,11.88
2023-04-16T02:28:36.039Z,12.40
2023-04-16T02:31:03.375Z,12.25
2023-04-16T02:33:36.625Z,13.20
2023-04-16T02:36:04.307Z,12.50
2023-04-16T02:38:31.503Z,12.38
2023-04-16T02:40:59.660Z,13.10
2023-04-16T02:43:26.852Z,12.98
2023-04-16T02:45:53.969Z,12.73
2023-04-16T02:48:21.261Z,14.38
2023-04-16T02:50:48.369Z,13.75
2023-04-16T02:53:15.670Z,12.60
2023-04-16T02:55:47.344Z,13.10
2023-04-16T02:58:14.429Z,13.45
2023-04-16T03:00:41.613Z,13.15
2023-04-16T03:03:08.794Z,12.93
2023-04-16T03:05:36.415Z,12.80
2023-04-16T03:08:04.937Z,12.70
2023-04-16T03:10:32.627Z,12.25
2023-04-16T03:12:59.780Z,13.95
2023-04-16T03:15:27.592Z,13.85
2023-04-16T03:17:55.087Z,12.93
2023-04-16T03:20:22.243Z,13.98
2023-04-16T03:22:49.983Z,12.80
2023-04-16T03:25:17.176Z,13.55
2023-04-16T03:27:44.508Z,13.02
2023-04-16T03:30:13.504Z,12.77
2023-04-16T03:32:41.125Z,14.85
2023-04-16T03:35:09.276Z,12.43
2023-04-16T03:37:37.692Z,13.60
2023-04-16T03:40:07.662Z,12.68
2023-04-16T03:42:34.981Z,15.10
2023-04-16T03:45:02.938Z,14.27
2023-04-16T03:47:31.670Z,13.40
2023-04-16T03:50:02.301Z,13.90
2023-04-16T03:52:29.540Z,13.35
2023-04-16T03:54:57.091Z,13.18
2023-04-16T03:57:27.199Z,12.75
2023-04-16T03:59:58.533Z,12.30
2023-04-16T04:02:28.409Z,10.10
2023-04-16T04:04:55.709Z,11.48
2023-04-16T04:07:23.606Z,9.45
2023-04-16T04:09:51.729Z,7.90
2023-04-16T04:12:18.843Z,5.70
2023-04-16T04:14:46.731Z,5.70
2023-04-16T04:17:13.893Z,5.55
2023-04-16T04:19:47.256Z,5.30
2023-04-16T04:22:21.967Z,7.53
2023-04-16T04:24:49.145Z,5.88
2023-04-16T04:27:16.361Z,6.90
2023-04-16T04:29:43.475Z,6.00
2023-04-16T04:32:11.388Z,6.90
2023-04-16T04:34:38.545Z,6.40
2023-04-16T04:37:07.157Z,6.57
2023-04-16T04:39:34.248Z,5.97
2023-04-16T04:42:03.563Z,5.75
2023-04-16T04:44:31.040Z,5.93
2023-04-16T04:46:58.194Z,5.60
2023-04-16T04:49:25.356Z,5.70
2023-04-16T04:51:53.203Z,5.70
2023-04-16T04:54:21.298Z,4.78
2023-04-16T04:56:48.470Z,4.93
2023-04-16T04:59:15.724Z,5.63
2023-04-16T05:01:42.964Z,6.32
2023-04-16T05:04:10.064Z,6.00
2023-04-16T05:06:37.223Z,6.03
2023-04-16T05:09:04.516Z,6.80
2023-04-16T05:11:31.905Z,7.28
2023-04-16T05:13:59.017Z,7.25
2023-04-16T05:16:26.270Z,6.82
2023-04-16T05:18:53.408Z,7.10
2023-04-16T05:21:20.539Z,6.68
2023-04-16T05:23:47.660Z,8.00
2023-04-16T05:26:14.745Z,8.02
2023-04-16T05:28:41.812Z,7.13
2023-04-16T05:31:09.004Z,7.50
2023-04-16T05:33:36.204Z,6.93
2023-04-16T05:36:03.575Z,6.38
2023-04-16T05:38:30.759Z,7.75
2023-04-16T05:40:58.996Z,8.15
2023-04-16T05:43:26.084Z,8.32
2023-04-16T05:45:53.140Z,8.00
2023-04-16T05:48:20.504Z,7.93
2023-04-16T05:50:47.599Z,9.77
2023-04-16T05:53:15.492Z,8.63
2023-04-16T05:55:42.562Z,8.63
2023-04-16T05:58:10.036Z,10.35
2023-04-16T06:00:37.672Z,10.25
2023-04-16T06:03:05.388Z,10.50
2023-04-16T06:05:32.572Z,9.88
2023-04-16T06:08:00.478Z,10.25
2023-04-16T06:10:27.804Z,10.23
2023-04-16T06:12:55.585Z,9.85
2023-04-16T06:15:22.839Z,10.52
2023-04-16T06:17:51.367Z,9.82
2023-04-16T06:20:18.885Z,9.55
2023-04-16T06:22:46.470Z,10.85
2023-04-16T06:25:13.816Z,10.98
2023-04-16T06:27:42.371Z,8.57
2023-04-16T06:30:13.670Z,10.57
2023-04-16T06:32:41.549Z,9.10
2023-04-16T06:35:09.316Z,10.50
2023-04-16T06:37:36.933Z,9.23
2023-04-16T06:40:05.376Z,9.23
2023-04-16T06:42:33.148Z,8.90
2023-04-16T06:45:00.211Z,12.38
2023-04-16T06:47:27.717Z,13.45
2023-04-16T06:49:55.021Z,10.38
2023-04-16T06:52:22.351Z,10.43
2023-04-16T06:54:49.746Z,13.57
2023-04-16T06:57:17.218Z,15.30
2023-04-16T06:59:44.465Z,17.52
2023-04-16T07:02:12.309Z,17.02
2023-04-16T07:04:39.415Z,14.13
2023-04-16T07:07:07.118Z,15.23
2023-04-16T07:09:34.420Z,10.20
2023-04-16T07:12:01.784Z,9.98
2023-04-16T07:14:28.974Z,9.65
2023-04-16T07:16:56.663Z,9.60
2023-04-16T07:19:23.796Z,9.85
2023-04-16T07:21:51.140Z,10.68
2023-04-16T07:24:18.991Z,10.60
2023-04-16T07:26:46.497Z,11.70
2023-04-16T07:29:13.847Z,11.38
2023-04-16T07:31:42.062Z,11.32
2023-04-16T07:34:09.189Z,11.68
2023-04-16T07:36:36.741Z,12.70
2023-04-16T07:39:05.894Z,13.65
2023-04-16T07:41:33.100Z,12.88
2023-04-16T07:44:00.551Z,13.00
2023-04-16T07:46:36.101Z,12.27
2023-04-16T07:49:10.996Z,9.43
2023-04-16T07:51:38.126Z,8.95
2023-04-16T07:54:05.250Z,9.43
2023-04-16T07:56:32.442Z,7.88
2023-04-16T07:59:07.867Z,6.38
2023-04-16T08:01:46.346Z,6.28
2023-04-16T08:04:14.618Z,6.03
2023-04-16T08:06:41.885Z,5.40
2023-04-16T08:09:09.337Z,5.38
2023-04-16T08:11:36.691Z,4.57
2023-04-16T08:14:04.150Z,3.47
2023-04-16T08:16:31.220Z,4.63
2023-04-16T08:18:58.730Z,3.33
2023-04-16T08:21:26.514Z,3.92
2023-04-16T08:23:54.428Z,3.78
2023-04-16T08:26:21.590Z,3.35
2023-04-16T08:28:48.612Z,3.20
2023-04-16T08:31:16.173Z,5.05
2023-04-16T08:33:43.640Z,2.78
2023-04-16T08:36:10.858Z,4.10
2023-04-16T08:38:37.977Z,3.58
2023-04-16T08:41:09.699Z,4.18
2023-04-16T08:43:38.698Z,3.35
2023-04-16T08:46:06.392Z,3.55
2023-04-16T08:48:35.484Z,3.55
2023-04-16T08:51:02.862Z,3.53
2023-04-16T08:53:58.745Z,4.90
2023-04-16T08:56:27.228Z,3.58
2023-04-16T08:58:55.779Z,3.83
2023-04-16T09:01:24.712Z,3.53
2023-04-16T09:03:52.399Z,3.70
2023-04-16T09:06:20.099Z,3.35
2023-04-16T09:08:48.425Z,3.45
2023-04-16T09:11:18.491Z,3.33
2023-04-16T09:13:46.863Z,3.95
2023-04-16T09:16:15.695Z,3.17
2023-04-16T09:18:42.906Z,2.83
2023-04-16T09:21:14.057Z,4.00
2023-04-16T09:23:42.183Z,2.50
2023-04-16T09:26:09.276Z,3.15
2023-04-16T09:28:45.865Z,3.17
2023-04-16T09:31:18.160Z,5.05
2023-04-16T09:34:02.822Z,5.60
2023-04-16T09:36:31.684Z,5.60
2023-04-16T09:39:00.012Z,3.92
2023-04-16T09:41:29.517Z,4.45
2023-04-16T09:43:57.934Z,4.32
2023-04-16T09:46:34.155Z,4.28
2023-04-16T09:49:18.904Z,5.28
2023-04-16T09:51:48.308Z,4.80
2023-04-16T09:54:16.195Z,4.20
2023-04-16T09:56:45.278Z,5.75
2023-04-16T09:59:19.466Z,6.38
2023-04-16T10:02:14.396Z,3.78
2023-04-16T10:04:50.561Z,4.65
2023-04-16T10:07:19.155Z,4.07
2023-04-16T10:09:48.954Z,3.03
2023-04-16T10:12:17.027Z,4.72
2023-04-16T10:14:45.257Z,3.53
2023-04-16T10:17:12.948Z,3.20
2023-04-16T10:19:41.099Z,2.75
2023-04-16T10:22:08.448Z,3.22
2023-04-16T10:24:36.486Z,2.25
2023-04-16T10:27:03.918Z,2.90
2023-04-16T10:29:32.079Z,2.35
2023-04-16T10:32:00.398Z,5.00
2023-04-16T10:34:29.370Z,3.55
2023-04-16T10:36:56.620Z,2.67
2023-04-16T10:39:27.398Z,2.35
2023-04-16T10:42:13.773Z,3.00
2023-04-16T10:44:44.269Z,2.40
2023-04-16T10:47:14.432Z,2.22
2023-04-16T10:49:42.921Z,2.30
2023-04-16T10:52:12.900Z,2.70
2023-04-16T10:54:41.287Z,2.42
2023-04-16T10:57:18.161Z,2.28
2023-04-16T10:59:46.287Z,2.65
2023-04-16T11:02:22.996Z,2.58
2023-04-16T11:04:51.457Z,2.53
2023-04-16T11:07:20.820Z,2.85
2023-04-16T11:09:57.058Z,2.45
2023-04-16T11:12:40.797Z,2.85
2023-04-16T11:15:10.302Z,3.10
2023-04-16T11:17:52.086Z,2.88
2023-04-16T11:20:21.826Z,2.50
2023-04-16T11:22:50.163Z,3.25
2023-04-16T11:25:27.354Z,2.90
2023-04-16T11:27:55.048Z,3.15
2023-04-16T11:30:34.387Z,3.22
2023-04-16T11:33:12.186Z,3.70
2023-04-16T11:35:40.497Z,2.83
2023-04-16T11:38:07.870Z,2.83
2023-04-16T11:40:36.313Z,2.83
2023-04-16T11:43:05.302Z,2.95
2023-04-16T11:45:32.494Z,2.88
2023-04-16T11:47:59.679Z,2.63
2023-04-16T11:50:28.714Z,1.88
2023-04-16T11:52:58.265Z,2.22
2023-04-16T11:55:25.753Z,3.45
2023-04-16T11:57:53.004Z,4.18
2023-04-16T12:00:24.352Z,2.33
2023-04-16T12:02:54.249Z,2.28
2023-04-16T12:05:31.025Z,2.45
2023-04-16T12:08:03.673Z,1.88
2023-04-16T12:10:32.903Z,1.60
2023-04-16T12:13:17.362Z,2.20
2023-04-16T12:15:45.711Z,1.90
2023-04-16T12:18:13.033Z,2.28
2023-04-16T12:20:42.276Z,2.40
2023-04-16T12:23:09.744Z,2.65
2023-04-16T12:25:37.222Z,1.90
2023-04-16T12:28:04.991Z,2.03
2023-04-16T12:30:32.219Z,2.25
2023-04-16T12:33:18.692Z,2.83
2023-04-16T12:35:46.326Z,2.43
2023-04-16T12:38:15.421Z,2.20
2023-04-16T12:40:42.872Z,2.20
2023-04-16T12:43:11.128Z,2.15
2023-04-16T12:45:39.294Z,1.98
2023-04-16T12:48:06.741Z,2.22
2023-04-16T12:50:33.988Z,2.10
2023-04-16T12:53:01.128Z,1.85
2023-04-16T12:55:28.283Z,2.42
2023-04-16T12:57:55.409Z,2.85
2023-04-16T13:00:22.957Z,2.50
2023-04-16T13:02:50.295Z,2.70
2023-04-16T13:05:19.529Z,2.38
2023-04-16T13:07:46.883Z,2.10
2023-04-16T13:10:14.164Z,2.08
2023-04-16T13:12:41.475Z,1.90
2023-04-16T13:15:09.484Z,2.08
2023-04-16T13:17:36.668Z,2.10
2023-04-16T13:20:03.929Z,2.60
2023-04-16T13:22:31.125Z,2.55
2023-04-16T13:24:58.269Z,2.55
2023-04-16T13:27:25.401Z,1.90
2023-04-16T13:29:52.722Z,2.03
2023-04-16T13:32:20.705Z,2.10
2023-04-16T13:34:47.852Z,1.85
2023-04-16T13:37:15.474Z,1.90
2023-04-16T13:39:45.897Z,2.17
2023-04-16T13:42:13.152Z,1.83
2023-04-16T13:44:40.248Z,2.10
2023-04-16T13:47:07.486Z,2.20
2023-04-16T13:49:36.100Z,1.80
2023-04-16T13:52:03.823Z,1.80
2023-04-16T13:54:31.868Z,2.03
2023-04-16T13:56:59.255Z,2.25
2023-04-16T13:59:26.943Z,2.13
2023-04-16T14:01:54.168Z,1.95
2023-04-16T14:04:22.669Z,1.63
2023-04-16T14:06:50.646Z,1.88
2023-04-16T14:09:17.858Z,2.38
2023-04-16T14:11:45.000Z,2.30
2023-04-16T14:14:12.620Z,2.40
2023-04-16T14:16:39.828Z,2.20
2023-04-16T14:19:07.117Z,2.10
2023-04-16T14:21:34.392Z,2.20
2023-04-16T14:24:01.645Z,2.42
2023-04-16T14:26:28.899Z,2.80
2023-04-16T14:28:56.040Z,1.50
2023-04-16T14:31:23.783Z,2.30
2023-04-16T14:33:51.083Z,1.92
2023-04-16T14:36:18.287Z,1.80
2023-04-16T14:38:45.593Z,1.75
2023-04-16T14:41:13.453Z,2.63
2023-04-16T14:43:41.626Z,2.40
2023-04-16T14:46:08.980Z,3.55
2023-04-16T14:48:36.488Z,1.98
2023-04-16T14:51:03.761Z,3.08
2023-04-16T14:53:31.560Z,3.30
2023-04-16T14:55:59.359Z,2.60
2023-04-16T14:58:26.886Z,2.38
2023-04-16T15:00:54.332Z,2.30
2023-04-16T15:03:21.735Z,2.10
2023-04-16T15:05:55.539Z,3.92
2023-04-16T15:08:23.690Z,4.20
2023-04-16T15:10:51.574Z,6.53
2023-04-16T15:13:18.814Z,2.90
2023-04-16T15:15:46.134Z,3.40
2023-04-16T15:18:13.623Z,2.92
2023-04-16T15:20:40.696Z,2.33
2023-04-16T15:23:08.077Z,2.60
2023-04-16T15:25:35.268Z,2.20
2023-04-16T15:28:03.005Z,3.80
2023-04-16T15:30:31.524Z,6.40
2023-04-16T15:32:58.704Z,3.30
2023-04-16T15:35:25.904Z,3.25
2023-04-16T15:37:53.178Z,3.00
2023-04-16T15:40:20.960Z,3.22
2023-04-16T15:42:48.265Z,2.47
2023-04-16T15:45:15.435Z,4.53
2023-04-16T15:47:44.835Z,6.30
2023-04-16T15:50:12.086Z,5.00
2023-04-16T15:52:40.614Z,3.42
2023-04-16T15:55:08.484Z,3.65
2023-04-16T15:57:36.135Z,7.80
2023-04-16T16:00:13.510Z,9.57
2023-04-16T16:02:42.264Z,9.45
2023-04-16T16:05:14.017Z,3.90
2023-04-16T16:07:42.516Z,2.88
2023-04-16T16:10:11.650Z,4.05
2023-04-16T16:12:39.475Z,7.10
2023-04-16T16:15:08.307Z,7.47
2023-04-16T16:17:35.515Z,2.47
2023-04-16T16:20:04.284Z,2.45
2023-04-16T16:22:31.618Z,2.28
2023-04-16T16:24:58.968Z,3.17
2023-04-16T16:27:26.186Z,2.40
2023-04-16T16:29:54.052Z,3.58
2023-04-16T16:32:21.241Z,3.10
2023-04-16T16:34:49.291Z,4.35
2023-04-16T16:37:16.813Z,4.18
2023-04-16T16:39:44.772Z,4.70
2023-04-16T16:42:12.054Z,5.32
2023-04-16T16:44:40.219Z,4.55
2023-04-16T16:47:08.506Z,4.22
2023-04-16T16:49:36.169Z,5.70
2023-04-16T16:52:03.486Z,6.22
2023-04-16T16:54:31.218Z,5.75
2023-04-16T16:56:58.952Z,6.50
2023-04-16T16:59:27.005Z,5.20
2023-04-16T17:01:54.140Z,10.27
2023-04-16T17:04:21.837Z,8.43
2023-04-16T17:06:49.656Z,8.02
2023-04-16T17:09:17.620Z,7.60
2023-04-16T17:11:44.702Z,8.00
2023-04-16T17:14:12.268Z,7.15
2023-04-16T17:16:39.370Z,6.97
2023-04-16T17:19:07.009Z,9.93
2023-04-16T17:21:34.248Z,14.13
2023-04-16T17:24:01.736Z,8.82
2023-04-16T17:26:29.048Z,8.80
2023-04-16T17:28:57.870Z,8.98
2023-04-16T17:31:27.217Z,10.55
2023-04-16T17:33:54.560Z,6.80
2023-04-16T17:36:23.330Z,9.20
2023-04-16T17:38:50.938Z,9.40
2023-04-16T17:41:18.153Z,14.20
2023-04-16T17:43:48.978Z,16.10
2023-04-16T17:46:16.869Z,13.38
2023-04-16T17:48:44.505Z,9.57
2023-04-16T17:51:12.504Z,11.65
2023-04-16T17:53:39.831Z,11.60
2023-04-16T17:56:07.035Z,10.15
2023-04-16T17:58:35.574Z,9.32
2023-04-16T18:01:04.231Z,9.77
2023-04-16T18:03:32.889Z,11.02
2023-04-16T18:06:00.939Z,11.10
2023-04-16T18:08:29.310Z,12.85
2023-04-16T18:10:57.169Z,12.20
2023-04-16T18:13:24.825Z,36.25
2023-04-16T18:15:53.491Z,25.27
2023-04-16T18:18:21.583Z,27.95
2023-04-16T18:20:48.985Z,33.40
2023-04-16T18:23:16.740Z,26.23
2023-04-16T18:25:44.570Z,23.15
2023-04-16T18:28:14.040Z,22.00
2023-04-16T18:30:42.583Z,24.02
2023-04-16T18:35:40.927Z,19.85
2023-04-16T18:38:08.143Z,32.50
2023-04-16T18:40:36.607Z,35.15
2023-04-16T18:43:04.322Z,31.13
2023-04-16T18:45:34.694Z,23.38
2023-04-16T18:48:03.889Z,25.15
2023-04-16T18:50:31.315Z,23.52
2023-04-16T18:52:58.524Z,26.90
2023-04-16T18:55:25.622Z,26.98
2023-04-16T18:57:53.492Z,22.25
2023-04-16T19:00:20.842Z,13.93
2023-04-16T19:02:48.126Z,14.35
2023-04-16T19:05:15.797Z,13.70
2023-04-16T19:07:42.898Z,11.35
2023-04-16T19:10:10.378Z,17.95
2023-04-16T19:12:37.562Z,13.82
2023-04-16T19:15:06.083Z,13.55
2023-04-16T19:17:33.380Z,15.82
2023-04-16T19:20:00.692Z,18.35
2023-04-16T19:22:27.892Z,26.33
2023-04-16T19:24:55.967Z,29.55
2023-04-16T19:27:23.118Z,20.98
2023-04-16T19:29:50.228Z,25.67
2023-04-16T19:32:17.550Z,27.83
2023-04-16T19:34:44.673Z,36.35
2023-04-16T19:37:12.016Z,26.98
2023-04-16T19:39:39.384Z,17.23
2023-04-16T19:42:06.737Z,15.95
2023-04-16T19:44:33.795Z,11.82
2023-04-16T19:47:00.929Z,13.98
2023-04-16T19:49:34.365Z,11.45
2023-04-16T19:52:02.004Z,14.30
2023-04-16T19:54:29.288Z,14.43
2023-04-16T19:56:57.382Z,11.43
2023-04-16T19:59:28.891Z,11.88
2023-04-16T20:01:56.249Z,14.18
2023-04-16T20:04:23.681Z,14.88
2023-04-16T20:06:51.088Z,11.93
2023-04-16T20:09:20.389Z,12.00
2023-04-16T20:11:47.839Z,13.77
2023-04-16T20:14:15.418Z,9.43
2023-04-16T20:16:43.961Z,11.07
2023-04-16T20:19:11.353Z,11.25
2023-04-16T20:21:40.766Z,13.50
2023-04-16T20:24:10.830Z,12.18
2023-04-16T20:26:38.047Z,13.75
2023-04-16T20:29:05.407Z,10.15
2023-04-16T20:31:33.099Z,12.75
2023-04-16T20:34:00.391Z,12.23
2023-04-16T20:36:31.112Z,14.23
2023-04-16T20:38:59.679Z,14.57
2023-04-16T20:41:27.666Z,16.40
2023-04-16T20:43:54.855Z,17.88
2023-04-16T20:46:25.377Z,16.65
2023-04-16T20:48:52.588Z,16.52
2023-04-16T20:51:19.822Z,19.95
2023-04-16T20:53:46.931Z,21.15
2023-04-16T20:56:15.277Z,19.85
2023-04-16T20:58:43.018Z,20.67
2023-04-16T21:01:10.688Z,22.40
2023-04-16T21:03:38.171Z,22.58
2023-04-16T21:06:05.587Z,22.27
2023-04-16T21:08:32.921Z,22.10
2023-04-16T21:11:00.274Z,24.80
2023-04-16T21:13:27.436Z,23.52
2023-04-16T21:15:54.831Z,22.52
2023-04-16T21:18:22.036Z,19.52
2023-04-16T21:20:49.263Z,18.17
2023-04-16T21:23:16.678Z,19.25
2023-04-16T21:25:43.852Z,17.80
2023-04-16T21:28:10.991Z,16.48
2023-04-16T21:30:38.701Z,13.52
2023-04-16T21:33:06.408Z,10.52
2023-04-16T21:35:33.739Z,8.75
2023-04-16T21:38:01.077Z,7.70
2023-04-16T21:40:28.319Z,6.10
2023-04-16T21:42:55.729Z,6.35
2023-04-16T21:45:23.172Z,5.82
2023-04-16T21:47:50.583Z,4.70
2023-04-16T21:50:17.758Z,4.90
2023-04-16T21:52:46.644Z,4.60
2023-04-16T21:55:14.654Z,4.07
2023-04-16T21:57:42.069Z,4.28
2023-04-16T22:00:14.099Z,4.00
2023-04-16T22:02:43.274Z,5.28
2023-04-16T22:05:11.611Z,6.32
2023-04-16T22:07:38.999Z,6.07
2023-04-16T22:10:07.153Z,7.10
2023-04-16T22:12:37.988Z,9.45
2023-04-16T22:15:06.500Z,10.85
2023-04-16T22:17:34.633Z,9.23
2023-04-16T22:20:05.464Z,9.73
2023-04-16T22:22:33.403Z,8.20
2023-04-16T22:25:00.641Z,7.60
2023-04-16T22:27:27.829Z,6.10
2023-04-16T22:29:54.936Z,5.13
2023-04-16T22:32:22.344Z,4.88
2023-04-16T22:34:49.568Z,4.18
2023-04-16T22:37:18.208Z,4.30
2023-04-16T22:39:45.683Z,4.68
2023-04-16T22:42:12.974Z,4.43
2023-04-16T22:44:40.084Z,5.85
2023-04-16T22:47:07.210Z,7.55
2023-04-16T22:49:34.377Z,5.30
2023-04-16T22:52:01.917Z,4.57
2023-04-16T22:54:32.446Z,4.00
2023-04-16T22:56:59.844Z,4.90
2023-04-16T22:59:26.994Z,5.10
2023-04-16T23:01:54.513Z,4.90
2023-04-16T23:04:21.700Z,5.05
2023-04-16T23:06:48.830Z,7.25
2023-04-16T23:09:15.981Z,11.10
2023-04-16T23:11:43.128Z,14.63
2023-04-16T23:14:10.352Z,13.60
2023-04-16T23:16:37.467Z,12.40
2023-04-16T23:19:04.645Z,8.77
2023-04-16T23:21:32.740Z,8.52
2023-04-16T23:23:59.877Z,6.95
2023-04-16T23:26:27.218Z,7.07
2023-04-16T23:28:54.332Z,5.10
2023-04-16T23:31:21.459Z,4.38
2023-04-16T23:33:48.566Z,5.55
2023-04-16T23:36:16.037Z,4.55
2023-04-16T23:38:43.100Z,6.15
2023-04-16T23:41:10.221Z,3.90
2023-04-16T23:43:40.268Z,6.05
2023-04-16T23:46:07.881Z,4.90
2023-04-16T23:48:35.063Z,5.43
2023-04-16T23:51:02.207Z,10.95
2023-04-16T23:53:29.285Z,6.68
2023-04-16T23:55:56.463Z,6.65
2023-04-16T23:58:23.663Z,4.97
